Time;durP1;ratioP1;P1;durP2;ratioP2;P2;SDS_P1;SDS_P2;PMS_P1;PMS_P2;Temp;Humidity;BMP_temperature;BMP_pressure;BME280_temperature;BME280_humidity;BME280_pressure;Samples;Min_cycle;Max_cycle;Signal;HPM_P1;HPM_P2
2022/02/26 00:01:32;;;;;;;60.80;55.05;;;;;;;-2.66;100.00;101473.78;5058844;28;20049;-79
2022/02/26 00:03:58;;;;;;;63.75;58.25;;;;;;;-2.84;100.00;101469.78;5059241;28;20481;-79
2022/02/26 00:06:26;;;;;;;58.40;53.22;;;;;;;-2.66;100.00;101465.09;5059017;28;20053;-80
2022/02/26 00:08:53;;;;;;;68.13;61.92;;;;;;;-2.71;100.00;101472.41;5058535;28;20048;-78
2022/02/26 00:11:20;;;;;;;67.35;60.83;;;;;;;-3.06;100.00;101468.56;5058792;28;20138;-81
2022/02/26 00:13:46;;;;;;;68.93;62.38;;;;;;;-2.68;100.00;101474.81;5058279;28;20114;-79
2022/02/26 00:16:13;;;;;;;66.95;60.85;;;;;;;-2.80;100.00;101471.25;5058810;28;20052;-80
2022/02/26 00:18:42;;;;;;;76.45;69.50;;;;;;;-2.83;100.00;101472.28;5058698;28;20482;-79
2022/02/26 00:21:09;;;;;;;68.95;62.47;;;;;;;-2.91;100.00;101466.72;5058718;28;20566;-79
2022/02/26 00:23:36;;;;;;;71.65;65.35;;;;;;;-2.80;100.00;101466.03;5058859;28;20114;-81
2022/02/26 00:26:04;;;;;;;73.13;66.22;;;;;;;-2.96;100.00;101468.00;5058259;28;20049;-79
2022/02/26 00:28:33;;;;;;;81.47;73.95;;;;;;;-3.07;100.00;101472.09;5058144;28;20045;-78
2022/02/26 00:30:59;;;;;;;96.47;86.60;;;;;;;-2.95;100.00;101470.47;5058939;28;20084;-79
2022/02/26 00:33:26;;;;;;;92.07;83.05;;;;;;;-3.15;100.00;101476.94;5057025;28;20053;-80
2022/02/26 00:35:58;;;;;;;75.00;67.50;;;;;;;-2.98;100.00;101480.25;5058835;28;20487;-79
2022/02/26 00:38:25;;;;;;;70.22;62.92;;;;;;;-3.05;100.00;101479.81;5058039;28;20059;-79
2022/02/26 00:40:52;;;;;;;74.70;67.13;;;;;;;-3.26;100.00;101476.81;5058594;28;20053;-80
2022/02/26 00:43:18;;;;;;;72.03;65.00;;;;;;;-3.18;100.00;101479.75;5057867;28;20052;-79
2022/02/26 00:45:46;;;;;;;71.85;64.65;;;;;;;-3.14;100.00;101475.22;5057985;28;20049;-81
2022/02/26 00:48:13;;;;;;;69.70;63.63;;;;;;;-3.32;100.00;101475.44;5057761;28;20052;-82
2022/02/26 00:50:41;;;;;;;76.68;70.00;;;;;;;-3.23;100.00;101477.44;5058027;28;20052;-82
2022/02/26 00:53:11;;;;;;;80.05;72.95;;;;;;;-3.20;100.00;101473.00;5058315;28;20052;-80
2022/02/26 00:55:38;;;;;;;94.07;85.53;;;;;;;-3.10;100.00;101481.88;5057755;28;20436;-80
2022/02/26 00:58:06;;;;;;;86.70;79.35;;;;;;;-3.29;100.00;101474.41;5057846;28;20107;-80
2022/02/26 01:00:33;;;;;;;66.65;60.97;;;;;;;-3.33;100.00;101471.19;5058142;28;20049;-80
2022/02/26 01:02:59;;;;;;;57.83;51.92;;;;;;;-3.39;100.00;101471.53;5057641;28;20048;-79
2022/02/26 01:05:26;;;;;;;71.63;64.95;;;;;;;-3.54;100.00;101475.97;5058174;28;20056;-80
2022/02/26 01:07:53;;;;;;;66.90;60.40;;;;;;;-3.32;100.00;101482.41;5057283;28;20045;-79
2022/02/26 01:10:21;;;;;;;67.32;61.22;;;;;;;-3.38;100.00;101482.81;5057791;28;20053;-79
2022/02/26 01:12:48;;;;;;;70.85;63.88;;;;;;;-3.09;100.00;101486.94;5057664;28;20052;-81
2022/02/26 01:15:15;;;;;;;62.17;56.55;;;;;;;-3.52;100.00;101486.25;5058015;28;20049;-81
2022/02/26 01:17:41;;;;;;;77.25;68.05;;;;;;;-2.95;100.00;101496.47;5057558;28;20053;-79
2022/02/26 01:20:09;;;;;;;80.50;66.57;;;;;;;-2.97;100.00;101490.53;5057912;28;20057;-79
2022/02/26 01:22:36;;;;;;;85.82;71.30;;;;;;;-3.15;100.00;101497.75;5057485;28;20130;-83
2022/02/26 01:25:04;;;;;;;91.00;72.28;;;;;;;-2.89;100.00;101506.47;5057354;28;20048;-79
2022/02/26 01:27:32;;;;;;;98.68;76.70;;;;;;;-3.12;100.00;101504.50;5057595;28;20075;-80
2022/02/26 01:29:59;;;;;;;117.90;82.47;;;;;;;-3.05;100.00;101503.19;5057827;28;20057;-80
2022/02/26 01:32:25;;;;;;;140.43;96.63;;;;;;;-3.13;100.00;101497.66;5057342;28;20455;-81
2022/02/26 01:34:52;;;;;;;106.15;84.72;;;;;;;-3.10;100.00;101498.28;5057285;28;20397;-80
2022/02/26 01:37:19;;;;;;;92.63;82.93;;;;;;;-3.26;100.00;101487.22;5057212;28;20053;-79
2022/02/26 01:39:45;;;;;;;84.18;74.65;;;;;;;-3.27;100.00;101495.91;5057764;28;20076;-79
2022/02/26 01:42:12;;;;;;;90.25;78.82;;;;;;;-3.96;100.00;101493.25;5056446;28;20122;-80
2022/02/26 01:44:46;;;;;;;82.15;72.53;;;;;;;-3.96;100.00;101490.66;5056548;28;20068;-80
2022/02/26 01:47:12;;;;;;;79.53;71.18;;;;;;;-3.29;100.00;101503.81;5056840;28;20374;-80
2022/02/26 01:49:39;;;;;;;80.82;72.15;;;;;;;-3.40;100.00;101503.66;5057177;28;20049;-81
2022/02/26 01:52:07;;;;;;;81.65;72.13;;;;;;;-3.05;100.00;101498.00;5057223;28;20451;-80
2022/02/26 01:54:33;;;;;;;85.80;72.97;;;;;;;-3.40;100.00;101492.44;5056913;28;20049;-81
2022/02/26 01:57:50;;;;;;;88.13;78.50;;;;;;;-3.11;100.00;101494.03;5056974;28;20079;-80
2022/02/26 02:00:19;;;;;;;82.88;71.78;;;;;;;-2.96;100.00;101497.41;5056171;28;20080;-81
2022/02/26 02:02:46;;;;;;;80.47;67.32;;;;;;;-3.15;100.00;101502.94;5056270;28;20049;-81
2022/02/26 02:05:13;;;;;;;86.22;75.80;;;;;;;-3.04;100.00;101504.84;5056261;28;20045;-79
2022/02/26 02:07:39;;;;;;;96.68;86.70;;;;;;;-3.39;100.00;101514.88;5056072;28;20063;-81
2022/02/26 02:10:07;;;;;;;91.97;82.60;;;;;;;-3.23;100.00;101515.59;5056736;28;20452;-79
2022/02/26 02:12:33;;;;;;;84.00;74.57;;;;;;;-3.19;100.00;101513.63;5056291;28;20462;-79
2022/02/26 02:15:01;;;;;;;86.75;77.22;;;;;;;-3.26;100.00;101513.19;5056189;28;20049;-80
2022/02/26 02:17:29;;;;;;;86.07;77.07;;;;;;;-3.15;100.00;101523.72;5056614;28;20041;-79
2022/02/26 02:19:56;;;;;;;83.20;74.38;;;;;;;-3.11;100.00;101527.00;5055800;28;20126;-83
2022/02/26 02:22:24;;;;;;;94.85;82.72;;;;;;;-3.40;100.00;101536.59;5056102;28;20468;-80
2022/02/26 02:24:51;;;;;;;92.30;82.28;;;;;;;-3.57;100.00;101533.31;5056030;28;20045;-79
2022/02/26 02:27:19;;;;;;;95.15;83.40;;;;;;;-3.29;100.00;101532.41;5056343;28;20084;-80
2022/02/26 02:29:46;;;;;;;95.43;84.63;;;;;;;-3.29;100.00;101539.38;5055590;28;20048;-81
2022/02/26 02:32:13;;;;;;;86.90;77.50;;;;;;;-3.85;100.00;101543.69;5056505;28;20044;-80
2022/02/26 02:34:39;;;;;;;92.38;83.05;;;;;;;-3.43;100.00;101545.41;5056308;28;20056;-81
2022/02/26 02:37:10;;;;;;;95.93;85.90;;;;;;;-3.95;100.00;101541.63;5056202;28;20433;-80
2022/02/26 02:39:38;;;;;;;87.68;78.68;;;;;;;-3.09;100.00;101548.50;5056076;28;20052;-81
2022/02/26 02:42:06;;;;;;;86.57;77.45;;;;;;;-3.44;100.00;101548.13;5056729;28;20147;-79
2022/02/26 02:44:33;;;;;;;86.22;77.32;;;;;;;-3.05;100.00;101557.78;5055479;28;20049;-82
2022/02/26 02:46:59;;;;;;;93.65;84.35;;;;;;;-3.61;100.00;101549.97;5055763;28;20115;-79
2022/02/26 02:49:26;;;;;;;82.15;74.40;;;;;;;-3.19;100.00;101565.59;5055285;28;20406;-82
2022/02/26 02:51:53;;;;;;;89.28;80.57;;;;;;;-3.17;100.00;101571.56;5055498;28;20133;-81
2022/02/26 02:54:20;;;;;;;76.20;68.68;;;;;;;-3.15;100.00;101570.50;5054975;28;20539;-82
2022/02/26 02:56:49;;;;;;;84.13;75.38;;;;;;;-2.85;100.00;101577.31;5054746;28;20044;-79
2022/02/26 02:59:17;;;;;;;86.35;77.90;;;;;;;-2.76;100.00;101582.75;5056121;28;20048;-79
2022/02/26 03:01:44;;;;;;;81.00;73.20;;;;;;;-2.86;100.00;101583.44;5140750;22;20541;-80
2022/02/26 03:04:11;;;;;;;80.07;72.15;;;;;;;-2.71;100.00;101592.88;5016536;28;20068;-82
2022/02/26 03:06:38;;;;;;;76.03;67.93;;;;;;;-2.60;100.00;101595.63;5016062;28;20370;-79
2022/02/26 03:09:04;;;;;;;74.93;67.63;;;;;;;-3.27;100.00;101595.50;5015583;28;20532;-80
2022/02/26 03:11:31;;;;;;;79.80;72.03;;;;;;;-3.11;100.00;101599.75;5015958;28;20049;-79
2022/02/26 03:13:59;;;;;;;77.25;70.32;;;;;;;-3.22;100.00;101600.41;5015248;28;20049;-80
2022/02/26 03:16:26;;;;;;;81.60;74.18;;;;;;;-2.68;100.00;101597.03;5016921;28;20124;-80
2022/02/26 03:18:53;;;;;;;71.90;65.10;;;;;;;-3.03;100.00;101589.69;5015767;28;20112;-79
2022/02/26 03:21:19;;;;;;;76.82;69.95;;;;;;;-3.00;100.00;101590.34;5015609;28;20054;-80
2022/02/26 03:23:46;;;;;;;76.97;69.20;;;;;;;-3.02;100.00;101593.97;5015608;28;20489;-81
2022/02/26 03:26:13;;;;;;;67.32;60.60;;;;;;;-3.13;100.00;101593.81;5015443;28;20057;-80
2022/02/26 03:28:39;;;;;;;72.13;65.43;;;;;;;-3.41;100.00;101602.50;5015005;28;20041;-80
2022/02/26 03:31:08;;;;;;;86.25;78.93;;;;;;;-3.37;100.00;101597.00;5015215;28;20127;-79
2022/02/26 03:33:35;;;;;;;95.55;87.13;;;;;;;-3.26;100.00;101606.75;5015739;28;20115;-80
2022/02/26 03:36:03;;;;;;;85.25;77.82;;;;;;;-2.96;100.00;101611.78;5015493;28;20054;-81
2022/02/26 03:38:30;;;;;;;86.88;79.07;;;;;;;-3.01;100.00;101603.44;5014598;28;20041;-82
2022/02/26 03:40:58;;;;;;;78.90;71.60;;;;;;;-2.90;100.00;101602.78;5015089;28;20053;-79
2022/02/26 03:43:24;;;;;;;77.82;70.32;;;;;;;-2.99;100.00;101604.19;5015299;28;20054;-80
2022/02/26 03:45:51;;;;;;;74.03;67.22;;;;;;;-3.08;100.00;101621.19;5014454;28;20058;-78
2022/02/26 03:48:19;;;;;;;88.45;79.40;;;;;;;-3.00;100.00;101612.91;5015538;28;20054;-80
2022/02/26 03:50:46;;;;;;;93.55;83.88;;;;;;;-2.97;100.00;101610.09;5015110;28;20054;-81
2022/02/26 03:53:12;;;;;;;99.45;89.60;;;;;;;-2.97;100.00;101620.50;5015466;28;20154;-80
2022/02/26 03:55:39;;;;;;;96.75;87.00;;;;;;;-2.81;100.00;101626.44;5015222;28;20045;-79
2022/02/26 03:58:06;;;;;;;86.40;78.07;;;;;;;-2.86;100.00;101622.44;5015010;28;20482;-81
2022/02/26 04:00:34;;;;;;;87.50;79.55;;;;;;;-2.58;100.00;101627.53;5015328;28;20065;-81
2022/02/26 04:03:00;;;;;;;80.10;72.75;;;;;;;-2.68;100.00;101625.66;5014744;28;20058;-80
2022/02/26 04:05:29;;;;;;;91.38;83.13;;;;;;;-2.84;100.00;101633.59;5014557;28;20057;-81
2022/02/26 04:07:56;;;;;;;92.50;84.63;;;;;;;-3.02;100.00;101636.41;5018262;28;20465;-81
2022/02/26 04:10:23;;;;;;;86.63;78.75;;;;;;;-3.05;100.00;101644.41;5018870;28;20433;-80
2022/02/26 04:12:50;;;;;;;86.30;78.45;;;;;;;-3.13;100.00;101653.59;5019308;28;20123;-81
2022/02/26 04:15:16;;;;;;;99.78;89.60;;;;;;;-3.57;100.00;101652.78;5018892;28;20212;-81
2022/02/26 04:17:43;;;;;;;96.72;86.28;;;;;;;-3.25;100.00;101652.56;5018567;28;20068;-82
2022/02/26 04:20:12;;;;;;;77.40;70.10;;;;;;;-3.23;100.00;101642.94;5019043;28;20049;-80
2022/02/26 04:22:40;;;;;;;68.40;62.30;;;;;;;-2.99;100.00;101645.78;5018464;28;20123;-81
2022/02/26 04:25:08;;;;;;;76.53;69.93;;;;;;;-2.78;100.00;101646.22;5018470;28;20052;-79
2022/02/26 04:27:34;;;;;;;71.43;64.78;;;;;;;-2.98;100.00;101652.63;5018645;28;20064;-80
2022/02/26 04:30:01;;;;;;;68.65;62.67;;;;;;;-3.42;100.00;101647.56;5017971;28;20478;-79
2022/02/26 04:32:28;;;;;;;66.70;60.63;;;;;;;-3.39;100.00;101657.75;5017728;28;20108;-81
2022/02/26 04:34:55;;;;;;;68.47;62.38;;;;;;;-3.10;100.00;101651.63;5018434;28;20482;-81
2022/02/26 04:37:21;;;;;;;67.32;60.47;;;;;;;-3.63;100.00;101655.72;5018244;28;20521;-79
2022/02/26 04:39:50;;;;;;;66.68;60.67;;;;;;;-3.27;100.00;101654.41;5018022;28;20061;-79
2022/02/26 04:42:18;;;;;;;64.97;58.67;;;;;;;-3.47;100.00;101660.84;5018173;28;20050;-80
2022/02/26 04:44:46;;;;;;;70.53;64.40;;;;;;;-3.29;100.00;101657.13;5018585;28;20049;-81
2022/02/26 04:47:13;;;;;;;73.70;67.50;;;;;;;-3.09;100.00;101658.50;5018061;28;20565;-79
2022/02/26 04:49:40;;;;;;;71.32;64.93;;;;;;;-2.92;100.00;101661.81;5017123;28;20390;-80
2022/02/26 04:52:08;;;;;;;63.50;57.50;;;;;;;-3.41;100.00;101652.69;5017102;28;20108;-80
2022/02/26 04:54:35;;;;;;;59.75;54.10;;;;;;;-3.56;100.00;101657.03;5017920;28;20054;-79
2022/02/26 04:57:03;;;;;;;66.05;59.80;;;;;;;-3.10;100.00;101663.78;5018150;28;20112;-79
2022/02/26 04:59:30;;;;;;;64.18;58.15;;;;;;;-3.64;100.00;101664.44;5017684;28;20124;-82
2022/02/26 05:01:57;;;;;;;85.38;67.43;;;;;;;-3.75;100.00;101670.28;5017762;28;20066;-80
2022/02/26 05:04:23;;;;;;;87.65;71.07;;;;;;;-3.25;100.00;101681.16;5017830;28;20469;-80
2022/02/26 05:06:50;;;;;;;85.78;74.57;;;;;;;-3.03;100.00;101686.69;5017522;28;20536;-84
2022/02/26 05:09:17;;;;;;;84.55;68.43;;;;;;;-3.30;100.00;101690.97;5017809;28;20104;-81
2022/02/26 05:11:44;;;;;;;83.65;62.50;;;;;;;-3.08;100.00;101700.94;5017782;28;20050;-79
2022/02/26 05:14:12;;;;;;;87.80;70.63;;;;;;;-2.85;100.00;101699.50;5018359;28;20053;-80
2022/02/26 05:16:39;;;;;;;77.43;66.05;;;;;;;-2.66;100.00;101699.19;5018455;28;20141;-81
2022/02/26 05:19:06;;;;;;;79.03;68.93;;;;;;;-2.57;100.00;101701.25;5016992;28;20046;-81
2022/02/26 05:21:33;;;;;;;78.85;65.25;;;;;;;-3.12;100.00;101699.44;5017567;28;20108;-80
2022/02/26 05:23:59;;;;;;;72.93;64.75;;;;;;;-2.64;100.00;101710.34;5017874;28;20054;-81
2022/02/26 05:26:26;;;;;;;76.07;62.50;;;;;;;-3.02;100.00;101717.00;5016891;28;20477;-82
2022/02/26 05:28:53;;;;;;;75.57;67.57;;;;;;;-2.48;100.00;101726.69;5017154;28;20111;-80
2022/02/26 05:31:21;;;;;;;78.03;69.97;;;;;;;-2.35;100.00;101724.13;5017022;28;20107;-80
2022/02/26 05:33:48;;;;;;;76.75;65.55;;;;;;;-2.22;100.00;101729.38;5017033;28;20494;-82
2022/02/26 05:36:14;;;;;;;79.32;69.45;;;;;;;-2.19;100.00;101734.38;5017628;28;20046;-80
2022/02/26 05:38:41;;;;;;;78.50;69.85;;;;;;;-2.16;100.00;101739.41;5017070;28;20049;-81
2022/02/26 05:41:08;;;;;;;78.90;70.32;;;;;;;-2.13;100.00;101734.81;5017120;28;20128;-81
2022/02/26 05:43:35;;;;;;;76.88;65.97;;;;;;;-1.94;100.00;101733.63;5016729;28;20115;-81
2022/02/26 05:46:02;;;;;;;76.07;67.15;;;;;;;-1.94;100.00;101733.63;5017622;28;20053;-80
2022/02/26 05:48:31;;;;;;;81.10;67.88;;;;;;;-2.11;100.00;101743.38;5017084;28;20132;-79
2022/02/26 05:50:57;;;;;;;76.53;66.18;;;;;;;-2.16;100.00;101742.81;5017487;28;20418;-80
2022/02/26 05:53:24;;;;;;;65.57;58.72;;;;;;;-1.95;100.00;101756.25;5016996;28;20058;-79
2022/02/26 05:55:51;;;;;;;64.85;58.25;;;;;;;-1.99;100.00;101762.59;5017266;28;20107;-79
2022/02/26 05:58:18;;;;;;;67.93;61.08;;;;;;;-1.62;100.00;101757.56;5017517;28;20487;-79
2022/02/26 06:00:44;;;;;;;70.88;64.20;;;;;;;-1.43;100.00;101759.78;5017397;28;20046;-82
2022/02/26 06:03:11;;;;;;;68.03;61.13;;;;;;;-1.32;100.00;101774.72;5017184;28;20061;-80
2022/02/26 06:05:40;;;;;;;68.53;61.10;;;;;;;-1.14;100.00;101770.03;5016840;28;20049;-80
2022/02/26 06:08:07;;;;;;;77.05;68.80;;;;;;;-1.08;100.00;101770.44;5016380;28;20127;-80
2022/02/26 06:10:35;;;;;;;77.45;69.38;;;;;;;-0.87;100.00;101768.16;5017360;28;20108;-81
2022/02/26 06:13:01;;;;;;;89.55;74.07;;;;;;;-0.46;100.00;101770.47;5016999;28;20053;-80
2022/02/26 06:15:28;;;;;;;92.50;75.35;;;;;;;-0.37;100.00;101782.03;5017862;28;20049;-79
2022/02/26 06:17:55;;;;;;;110.82;79.60;;;;;;;-0.31;100.00;101781.59;5017123;28;20053;-79
2022/02/26 06:20:22;;;;;;;108.75;75.18;;;;;;;-0.28;100.00;101783.16;5018242;28;20057;-79
2022/02/26 06:22:50;;;;;;;108.97;77.03;;;;;;;0.09;100.00;101783.13;5017555;28;20053;-81
2022/02/26 06:25:18;;;;;;;103.35;75.28;;;;;;;-0.10;100.00;101788.84;5017731;28;20046;-80
2022/02/26 06:27:46;;;;;;;97.47;73.70;;;;;;;0.27;100.00;101791.38;5017303;28;20088;-82
2022/02/26 06:30:15;;;;;;;92.03;70.55;;;;;;;0.56;100.00;101792.69;5017853;28;20449;-81
2022/02/26 06:32:43;;;;;;;85.05;67.95;;;;;;;0.84;100.00;101804.53;5016809;28;20050;-83
2022/02/26 06:35:12;;;;;;;75.38;64.85;;;;;;;1.28;100.00;101809.94;5017728;28;20050;-81
2022/02/26 06:37:40;;;;;;;65.22;57.92;;;;;;;0.97;100.00;101808.81;5017226;28;20057;-82
2022/02/26 06:40:10;;;;;;;68.75;61.80;;;;;;;1.24;100.00;101805.88;5016765;28;20383;-79
2022/02/26 06:42:37;;;;;;;67.15;59.83;;;;;;;1.60;100.00;101810.88;5017551;28;20104;-80
2022/02/26 06:45:05;;;;;;;71.75;58.35;;;;;;;1.78;100.00;101829.53;5018151;28;20054;-80
2022/02/26 06:47:32;;;;;;;73.38;63.35;;;;;;;1.72;100.00;101827.41;5017366;28;20096;-81
2022/02/26 06:49:59;;;;;;;84.22;71.50;;;;;;;1.70;100.00;101829.31;5017030;28;20050;-83
2022/02/26 06:52:27;;;;;;;67.47;60.25;;;;;;;1.92;100.00;101827.63;5017329;28;20050;-79
2022/02/26 06:54:54;;;;;;;74.10;66.45;;;;;;;2.10;100.00;101820.06;5017799;28;20050;-80
2022/02/26 06:57:22;;;;;;;69.65;62.15;;;;;;;2.20;100.00;101826.22;5017497;28;20140;-78
2022/02/26 06:59:48;;;;;;;67.22;60.45;;;;;;;2.56;100.00;101825.00;5016926;28;20050;-81
2022/02/26 07:02:15;;;;;;;72.25;64.45;;;;;;;2.72;100.00;101821.94;5017454;28;20049;-81
2022/02/26 07:04:43;;;;;;;65.85;59.00;;;;;;;2.44;100.00;101826.03;5017727;28;20054;-80
2022/02/26 07:07:10;;;;;;;67.93;60.95;;;;;;;2.67;100.00;101829.38;5016813;28;20482;-80
2022/02/26 07:09:37;;;;;;;66.40;59.58;;;;;;;2.98;100.00;101832.91;5017478;28;20120;-80
2022/02/26 07:12:05;;;;;;;82.57;68.20;;;;;;;3.36;100.00;101832.28;5019497;28;20058;-80
2022/02/26 07:14:35;;;;;;;66.28;59.10;;;;;;;3.81;100.00;101842.41;5018743;28;20088;-78
2022/02/26 07:17:03;;;;;;;74.82;63.20;;;;;;;4.18;100.00;101844.41;5019158;28;20092;-82
2022/02/26 07:19:30;;;;;;;59.67;53.72;;;;;;;4.50;100.00;101841.50;5019128;28;20054;-80
2022/02/26 07:21:59;;;;;;;53.95;48.80;;;;;;;4.74;100.00;101841.09;5018891;28;20057;-82
2022/02/26 07:24:26;;;;;;;55.28;49.38;;;;;;;4.72;100.00;101836.91;5018342;28;20046;-78
2022/02/26 07:26:53;;;;;;;61.38;52.20;;;;;;;4.96;100.00;101833.84;5018226;28;20065;-80
2022/02/26 07:29:19;;;;;;;58.67;52.03;;;;;;;4.73;100.00;101841.25;5017123;28;20050;-80
2022/02/26 07:31:47;;;;;;;60.10;53.60;;;;;;;5.03;100.00;101840.22;5017719;28;20050;-80
2022/02/26 07:34:15;;;;;;;56.25;50.40;;;;;;;4.83;100.00;101837.59;5018060;28;20112;-82
2022/02/26 07:36:42;;;;;;;65.88;59.90;;;;;;;4.89;100.00;101846.75;5017816;28;20457;-82
2022/02/26 07:39:09;;;;;;;75.55;67.85;;;;;;;4.97;100.00;101843.41;5017593;28;20108;-82
2022/02/26 07:41:36;;;;;;;75.47;67.90;;;;;;;5.16;100.00;101850.44;5017467;28;20054;-80
2022/02/26 07:44:03;;;;;;;73.38;66.43;;;;;;;5.39;100.00;101848.31;5022565;28;20441;-82
2022/02/26 07:46:30;;;;;;;70.78;64.05;;;;;;;5.43;100.00;101854.94;5021855;28;20053;-79
2022/02/26 07:48:58;;;;;;;70.75;64.22;;;;;;;5.81;100.00;101843.41;5021939;28;20057;-80
2022/02/26 07:51:25;;;;;;;65.82;60.10;;;;;;;5.90;100.00;101845.16;5021602;28;20100;-79
2022/02/26 07:53:52;;;;;;;68.70;62.92;;;;;;;6.03;100.00;101842.19;5024136;28;20112;-82
2022/02/26 07:56:19;;;;;;;75.15;68.95;;;;;;;6.12;100.00;101845.75;5023916;28;20481;-80
2022/02/26 07:58:46;;;;;;;72.70;66.25;;;;;;;6.55;100.00;101836.25;5023804;28;20042;-80
2022/02/26 08:01:13;;;;;;;68.72;62.85;;;;;;;6.84;100.00;101842.09;5024048;28;20109;-80
2022/02/26 08:03:39;;;;;;;71.60;65.47;;;;;;;6.62;100.00;101845.19;5024448;28;20464;-83
2022/02/26 08:06:07;;;;;;;77.70;70.88;;;;;;;7.33;100.00;101838.94;5023183;28;20046;-81
2022/02/26 08:08:34;;;;;;;73.63;67.07;;;;;;;7.51;100.00;101834.41;5022918;28;20049;-80
2022/02/26 08:11:01;;;;;;;67.32;61.88;;;;;;;7.44;100.00;101835.16;5024195;28;20042;-82
2022/02/26 08:13:28;;;;;;;75.65;68.70;;;;;;;8.12;100.00;101842.19;5025807;28;20061;-82
2022/02/26 08:15:54;;;;;;;73.40;67.03;;;;;;;7.74;100.00;101839.94;5025474;28;20084;-81
2022/02/26 08:18:22;;;;;;;73.88;67.53;;;;;;;7.87;100.00;101830.75;5024318;28;20525;-82
2022/02/26 08:20:49;;;;;;;71.15;65.03;;;;;;;7.83;100.00;101837.31;5026026;28;20046;-79
2022/02/26 08:23:23;;;;;;;75.13;68.20;;;;;;;7.89;100.00;101826.91;5024083;28;20497;-81
2022/02/26 08:25:49;;;;;;;75.68;68.93;;;;;;;8.35;100.00;101826.50;5026254;28;20429;-82
2022/02/26 08:28:16;;;;;;;67.43;61.33;;;;;;;8.75;100.00;101825.72;5024806;28;20050;-80
2022/02/26 08:30:43;;;;;;;63.97;58.17;;;;;;;8.31;100.00;101830.47;5022798;28;20532;-83
2022/02/26 08:33:10;;;;;;;62.88;58.03;;;;;;;8.46;100.00;101819.09;5025346;28;20461;-80
2022/02/26 08:35:37;;;;;;;68.40;62.60;;;;;;;8.68;100.00;101824.72;5024154;28;20057;-81
2022/02/26 08:38:05;;;;;;;76.63;70.30;;;;;;;8.71;100.00;101824.41;5025090;28;20049;-81
2022/02/26 08:40:33;;;;;;;73.88;67.40;;;;;;;9.21;100.00;101822.50;5026647;28;20042;-78
2022/02/26 08:43:01;;;;;;;51.58;47.03;;;;;;;9.02;100.00;101813.13;5026246;28;20050;-82
2022/02/26 08:45:28;;;;;;;55.67;50.72;;;;;;;9.68;100.00;101816.34;5026385;28;20062;-81
2022/02/26 08:47:56;;;;;;;53.13;48.53;;;;;;;10.25;100.00;101821.34;5027081;28;20049;-79
2022/02/26 08:50:23;;;;;;;51.17;46.90;;;;;;;9.51;100.00;101819.09;5024836;28;20053;-78
2022/02/26 08:52:50;;;;;;;53.30;48.65;;;;;;;9.54;100.00;101824.06;5024841;28;20129;-80
2022/02/26 08:55:16;;;;;;;48.72;44.88;;;;;;;9.96;100.00;101814.91;5025953;28;20474;-79
2022/02/26 08:57:45;;;;;;;52.58;47.95;;;;;;;9.49;100.00;101821.06;5026112;28;20049;-82
2022/02/26 09:00:12;;;;;;;52.35;48.08;;;;;;;9.71;100.00;101821.31;5024596;28;20116;-80
2022/02/26 09:02:40;;;;;;;54.47;50.00;;;;;;;10.06;100.00;101820.78;5025359;28;20116;-79
2022/02/26 09:05:07;;;;;;;53.45;48.97;;;;;;;10.40;100.00;101826.75;5025432;28;20081;-79
2022/02/26 09:07:34;;;;;;;53.95;49.45;;;;;;;10.15;100.00;101820.75;5025591;28;20050;-82
2022/02/26 09:10:01;;;;;;;52.90;48.22;;;;;;;11.55;100.00;101810.47;5026346;28;20054;-78
2022/02/26 09:12:28;;;;;;;50.25;45.75;;;;;;;11.19;100.00;101813.88;5026856;28;20042;-78
2022/02/26 09:14:58;;;;;;;52.85;48.28;;;;;;;11.27;100.00;101820.94;5026637;28;20054;-80
2022/02/26 09:17:30;;;;;;;52.40;47.95;;;;;;;11.49;100.00;101817.34;5025554;28;20112;-82
2022/02/26 09:19:57;;;;;;;;;;;;;;;12.00;100.00;101824.53;5026451;28;20054;-81
2022/02/26 09:22:26;;;;;;;50.45;46.42;;;;;;;11.31;100.00;101822.22;5026406;28;19921;-82
2022/02/26 09:24:53;;;;;;;53.92;49.20;;;;;;;11.47;100.00;101824.72;5027005;28;20104;-80
2022/02/26 09:27:27;;;;;;;54.55;50.25;;;;;;;11.67;100.00;101814.31;5025508;28;20474;-81
2022/02/26 09:29:53;;;;;;;53.37;48.70;;;;;;;12.13;99.53;101819.34;5025314;28;20112;-79
2022/02/26 09:32:24;;;;;;;51.85;47.65;;;;;;;11.93;99.58;101813.00;5025591;28;20042;-81
2022/02/26 09:34:51;;;;;;;53.28;49.05;;;;;;;12.00;97.27;101809.38;5026362;28;20056;-80
2022/02/26 09:37:18;;;;;;;52.03;48.17;;;;;;;12.57;91.64;101819.16;5025311;28;20485;-79
2022/02/26 09:39:44;;;;;;;52.53;48.10;;;;;;;11.75;93.21;101818.72;5024616;28;20549;-80
2022/02/26 09:42:11;;;;;;;55.47;51.15;;;;;;;12.12;91.79;101813.19;5023276;28;20077;-79
2022/02/26 09:44:38;;;;;;;53.72;49.67;;;;;;;11.55;92.53;101823.78;5022331;28;20050;-81
2022/02/26 09:47:06;;;;;;;54.33;50.17;;;;;;;11.67;95.26;101827.59;5025390;28;20133;-81
2022/02/26 09:49:34;;;;;;;52.25;47.92;;;;;;;11.16;95.32;101823.03;5024265;28;20124;-79
2022/02/26 09:52:02;;;;;;;52.33;47.65;;;;;;;10.90;100.00;101822.66;5024587;28;20057;-80
2022/02/26 09:54:29;;;;;;;51.67;47.03;;;;;;;12.22;100.00;101817.38;5023303;28;20471;-81
2022/02/26 09:56:58;;;;;;;51.10;46.92;;;;;;;12.63;90.81;101814.09;5025843;28;20442;-80
2022/02/26 09:59:27;;;;;;;55.70;51.13;;;;;;;12.72;88.61;101808.41;5022496;28;20061;-81
2022/02/26 10:01:59;;;;;;;54.60;50.22;;;;;;;11.62;94.17;101812.22;5020643;28;20060;-79
2022/02/26 10:04:28;;;;;;;52.85;48.83;;;;;;;12.26;95.32;101816.00;5021768;28;20049;-81
2022/02/26 10:07:10;;;;;;;52.13;47.65;;;;;;;12.81;94.61;101809.91;5023272;28;20076;-82
2022/02/26 10:09:44;;;;;;;55.45;50.78;;;;;;;12.75;87.95;101805.34;5023618;28;20061;-81
2022/02/26 10:12:22;;;;;;;53.15;48.95;;;;;;;13.53;88.34;101810.56;5023078;28;20457;-80
2022/02/26 10:14:51;;;;;;;55.22;50.75;;;;;;;13.78;84.23;101799.38;5022150;28;20089;-81
2022/02/26 10:17:34;;;;;;;54.60;50.08;;;;;;;13.68;83.05;101797.91;5023510;28;20588;-82
2022/02/26 10:20:08;;;;;;;57.00;51.80;;;;;;;13.57;83.10;101808.31;5024520;28;20082;-80
2022/02/26 10:22:39;;;;;;;55.38;50.92;;;;;;;12.71;81.07;101809.44;5022938;28;20046;-79
2022/02/26 10:25:09;;;;;;;51.80;47.53;;;;;;;12.57;81.04;101811.16;5025406;28;20455;-80
2022/02/26 10:27:43;;;;;;;51.00;46.67;;;;;;;14.07;84.88;101809.72;5024563;28;20124;-81
2022/02/26 10:30:21;;;;;;;51.72;47.60;;;;;;;13.24;82.14;101812.44;5023673;28;20050;-78
2022/02/26 10:33:05;;;;;;;54.25;50.00;;;;;;;13.96;81.29;101808.47;5025269;28;20088;-81
2022/02/26 10:35:41;;;;;;;57.90;53.55;;;;;;;15.16;80.04;101804.97;5023761;28;20077;-79
2022/02/26 10:38:19;;;;;;;55.55;51.30;;;;;;;14.63;74.35;101811.25;5023221;28;20452;-82
2022/02/26 10:41:00;;;;;;;56.03;51.75;;;;;;;14.47;73.79;101811.63;5024595;28;20056;-78
2022/02/26 10:43:46;;;;;;;57.75;53.25;;;;;;;13.94;75.93;101810.50;5024720;28;20465;-82
2022/02/26 10:46:20;;;;;;;60.13;55.50;;;;;;;13.96;73.01;101808.47;5022897;28;20046;-80
2022/02/26 10:48:47;;;;;;;58.63;53.97;;;;;;;13.79;73.07;101801.00;5024064;28;20074;-79
2022/02/26 10:51:15;;;;;;;54.28;50.33;;;;;;;13.24;74.89;101800.94;5026149;28;20042;-80
2022/02/26 10:53:45;;;;;;;55.85;51.53;;;;;;;13.57;75.02;101808.31;5022871;28;20092;-80
2022/02/26 10:56:13;;;;;;;53.38;49.38;;;;;;;14.93;70.07;101795.56;5021970;28;20116;-79
2022/02/26 10:58:42;;;;;;;58.60;53.83;;;;;;;14.51;72.15;101795.00;5022452;28;20488;-79
2022/02/26 11:01:10;;;;;;;56.47;52.03;;;;;;;12.79;72.75;101793.28;5024526;28;20046;-81
2022/02/26 11:03:37;;;;;;;50.78;46.83;;;;;;;12.88;72.50;101790.47;5022868;28;20144;-81
2022/02/26 11:06:07;;;;;;;58.28;53.97;;;;;;;13.81;72.80;101780.28;5022829;28;20041;-77
2022/02/26 11:08:35;;;;;;;55.70;50.53;;;;;;;13.78;70.14;101789.50;5024796;28;20050;-77